Time;durP1;ratioP1;P1;durP2;ratioP2;P2;SDS_P1;SDS_P2;PMS_P1;PMS_P2;Temp;Humidity;BMP_temperature;BMP_pressure;BME280_temperature;BME280_humidity;BME280_pressure;Samples;Min_cycle;Max_cycle;Signal;HPM_P1;HPM_P2
2022/08/04 00:00:29;;;;;;;8.97;8.43;;;;;;;17.36;88.75;93053.13;5048733;28;20209;-70
2022/08/04 00:03:06;;;;;;;9.73;9.17;;;;;;;17.43;88.29;93052.66;5048574;28;20229;-70
2022/08/04 00:05:39;;;;;;;10.03;9.33;;;;;;;17.32;88.91;93049.53;5048366;28;20424;-70
2022/08/04 00:08:14;;;;;;;9.37;8.80;;;;;;;17.31;89.52;93039.28;5047090;28;20247;-70
2022/08/04 00:10:47;;;;;;;9.80;9.20;;;;;;;17.25;90.13;93036.03;5047949;28;20185;-71
2022/08/04 00:13:15;;;;;;;9.77;9.10;;;;;;;17.29;91.76;93034.31;5048397;28;20302;-71
2022/08/04 00:15:41;;;;;;;9.53;8.97;;;;;;;17.16;91.76;93035.25;5047107;28;20234;-73
2022/08/04 00:18:08;;;;;;;10.30;9.60;;;;;;;16.92;93.39;93026.94;5048169;28;20313;-70
2022/08/04 00:20:37;;;;;;;9.43;8.93;;;;;;;16.63;94.48;93008.25;5048030;28;20199;-71
2022/08/04 00:23:05;;;;;;;9.70;9.07;;;;;;;16.56;94.38;93012.41;5047680;28;20974;-70
2022/08/04 00:25:31;;;;;;;9.90;9.30;;;;;;;16.70;92.91;93029.66;5048541;28;20186;-70
2022/08/04 00:27:58;;;;;;;10.10;9.57;;;;;;;16.58;92.21;92976.75;5048330;28;20250;-71
2022/08/04 00:30:24;;;;;;;10.50;9.80;;;;;;;16.86;92.33;93022.91;5048090;28;20270;-70
2022/08/04 00:32:51;;;;;;;9.23;8.70;;;;;;;16.85;92.65;93018.72;5045807;28;20222;-70
2022/08/04 00:35:16;;;;;;;9.20;8.70;;;;;;;16.87;92.52;93013.91;5046692;28;20187;-70
2022/08/04 00:37:45;;;;;;;9.37;8.87;;;;;;;16.77;92.86;93010.78;5045385;28;21001;-70
2022/08/04 00:40:33;;;;;;;8.80;8.33;;;;;;;16.78;91.82;93018.38;5047865;28;20229;-71
2022/08/04 00:43:15;;;;;;;9.80;8.87;;;;;;;16.82;91.11;93014.06;5047369;28;20234;-70
2022/08/04 00:46:02;;;;;;;9.70;9.10;;;;;;;16.87;91.65;93024.44;5048428;28;20217;-70
2022/08/04 00:48:55;;;;;;;9.53;9.03;;;;;;;16.89;92.19;93032.06;5043518;28;20225;-70
2022/08/04 00:51:39;;;;;;;9.97;9.27;;;;;;;16.83;92.09;93031.44;5048488;28;20198;-70
2022/08/04 00:54:24;;;;;;;9.27;8.67;;;;;;;16.72;93.19;93032.00;5048923;28;20229;-71
2022/08/04 00:57:01;;;;;;;10.67;9.97;;;;;;;16.62;93.38;93022.53;5051394;28;20206;-70
2022/08/04 00:59:57;;;;;;;9.97;9.37;;;;;;;16.73;93.23;93034.34;5049412;28;20214;-71
2022/08/04 01:02:41;;;;;;;9.80;9.30;;;;;;;16.64;93.34;93041.44;5051083;28;20252;-71
2022/08/04 01:05:20;;;;;;;10.17;9.43;;;;;;;16.61;93.61;93047.31;5051671;28;20201;-71
2022/08/04 01:08:23;;;;;;;10.00;9.20;;;;;;;16.60;94.25;93051.06;5050493;28;20704;-70
2022/08/04 01:11:14;;;;;;;9.37;8.83;;;;;;;16.60;93.92;93051.06;5051171;28;20188;-70
2022/08/04 01:13:42;;;;;;;9.77;9.03;;;;;;;16.47;95.75;93046.63;5050870;28;20238;-70
2022/08/04 01:16:12;;;;;;;10.63;10.03;;;;;;;16.41;95.48;93032.00;5051559;28;20759;-71
2022/08/04 01:19:06;;;;;;;10.97;10.27;;;;;;;16.47;95.84;93056.44;5048207;28;20225;-70
2022/08/04 01:21:50;;;;;;;9.73;9.07;;;;;;;16.41;94.32;93015.41;5051075;28;20202;-70
2022/08/04 01:24:44;;;;;;;9.77;9.27;;;;;;;16.45;94.73;93054.06;5050481;28;20218;-70
2022/08/04 01:27:34;;;;;;;11.30;10.03;;;;;;;16.43;94.44;93056.22;5050540;28;20202;-70
2022/08/04 01:30:00;;;;;;;10.23;9.63;;;;;;;16.46;93.09;93034.56;5050815;28;20250;-70
2022/08/04 01:32:37;;;;;;;10.63;10.13;;;;;;;16.54;92.04;93020.63;5049208;28;20252;-70
2022/08/04 01:35:15;;;;;;;8.90;8.40;;;;;;;16.58;92.09;93034.75;5050680;28;20197;-70
2022/08/04 01:38:01;;;;;;;10.07;9.33;;;;;;;16.58;92.71;93034.75;5050779;28;20246;-71
2022/08/04 01:40:27;;;;;;;9.60;9.00;;;;;;;16.23;94.72;93006.66;5051032;28;20189;-71
2022/08/04 01:42:54;;;;;;;10.33;9.63;;;;;;;16.63;93.29;93034.63;5050589;28;20225;-71
2022/08/04 01:45:23;;;;;;;11.00;10.30;;;;;;;16.48;94.67;93029.75;5050553;28;20194;-70
2022/08/04 01:47:54;;;;;;;9.37;8.77;;;;;;;16.52;93.86;93027.28;5050009;28;20222;-70
2022/08/04 01:50:20;;;;;;;10.97;10.37;;;;;;;16.36;93.85;93002.38;5050551;28;20201;-70
2022/08/04 01:52:46;;;;;;;9.63;9.13;;;;;;;16.48;93.13;93032.41;5049917;28;20222;-70
2022/08/04 01:55:14;;;;;;;9.70;9.07;;;;;;;16.57;93.32;93032.41;5048017;28;20186;-70
2022/08/04 01:57:48;;;;;;;9.63;9.00;;;;;;;16.59;92.87;93031.03;5050327;28;20222;-70
2022/08/04 02:00:17;;;;;;;9.47;8.87;;;;;;;16.58;93.58;93047.94;5049964;28;20181;-70
2022/08/04 02:02:44;;;;;;;9.40;8.90;;;;;;;16.51;93.88;93033.63;5048999;28;20248;-71
2022/08/04 02:05:11;;;;;;;9.83;9.23;;;;;;;16.34;93.30;93021.16;5049151;28;20198;-70
2022/08/04 02:08:00;;;;;;;10.00;9.30;;;;;;;16.36;92.77;93024.22;5050442;28;20218;-70
2022/08/04 02:10:55;;;;;;;9.53;8.90;;;;;;;16.50;92.78;93042.63;5049129;28;20178;-70
2022/08/04 02:13:35;;;;;;;11.43;10.70;;;;;;;16.52;92.63;93043.09;5038791;28;20234;-70
2022/08/04 02:16:13;;;;;;;10.53;9.73;;;;;;;16.40;93.11;93021.78;5049644;28;20301;-70
2022/08/04 02:19:18;;;;;;;11.30;10.47;;;;;;;16.49;94.91;93044.50;5049249;28;20221;-71
2022/08/04 02:21:50;;;;;;;10.77;10.17;;;;;;;16.61;93.71;93042.06;5051673;28;20189;-71
2022/08/04 02:24:21;;;;;;;11.00;10.30;;;;;;;16.41;94.77;93033.84;5048948;28;20303;-70
2022/08/04 02:26:49;;;;;;;11.03;9.97;;;;;;;16.45;93.25;93021.69;5049975;28;20190;-69
2022/08/04 02:29:48;;;;;;;11.27;10.47;;;;;;;16.35;93.98;93022.69;5048580;28;20237;-70
2022/08/04 02:32:24;;;;;;;9.37;8.90;;;;;;;16.40;92.76;93025.19;5049064;28;20246;-71
2022/08/04 02:35:02;;;;;;;9.90;9.27;;;;;;;16.32;92.78;93020.66;5049900;28;20189;-71
2022/08/04 02:37:30;;;;;;;10.30;9.70;;;;;;;16.32;92.39;93023.28;5049206;28;21240;-71
2022/08/04 02:39:58;;;;;;;9.27;8.77;;;;;;;16.26;92.09;93008.69;5050170;28;20201;-70
2022/08/04 02:42:26;;;;;;;9.43;8.80;;;;;;;16.27;91.20;93009.47;5048680;28;20218;-70
2022/08/04 02:44:57;;;;;;;10.40;9.80;;;;;;;16.29;91.58;93012.56;5050069;28;20186;-70
2022/08/04 02:47:24;;;;;;;9.70;9.20;;;;;;;16.36;91.86;93002.38;5049407;28;20248;-70
2022/08/04 02:49:51;;;;;;;9.40;8.80;;;;;;;16.38;91.96;93037.09;5050239;28;20202;-70
2022/08/04 02:52:18;;;;;;;10.87;10.03;;;;;;;16.49;91.92;93033.16;5048204;28;20237;-70
2022/08/04 02:54:44;;;;;;;10.27;9.33;;;;;;;16.42;91.61;93035.44;5050385;28;20186;-70
2022/08/04 02:57:14;;;;;;;10.33;9.63;;;;;;;16.43;89.01;93016.69;5048661;28;20214;-70
2022/08/04 02:59:58;;;;;;;10.00;9.33;;;;;;;16.23;92.76;93040.91;5050233;28;20205;-71
2022/08/04 03:02:44;;;;;;;9.37;8.87;;;;;;;16.22;92.91;93047.25;5049054;28;20234;-71
2022/08/04 03:05:20;;;;;;;9.63;9.13;;;;;;;16.20;92.88;93046.78;5047104;28;20240;-71
2022/08/04 03:08:17;;;;;;;10.97;9.17;;;;;;;16.09;93.62;93045.50;5049186;28;20225;-71
2022/08/04 03:11:21;;;;;;;9.23;8.77;;;;;;;16.01;94.33;93049.63;5049480;28;20194;-71
2022/08/04 03:14:33;;;;;;;10.40;9.80;;;;;;;15.96;95.09;93046.31;5048571;28;20222;-70
2022/08/04 03:17:16;;;;;;;11.30;10.60;;;;;;;15.99;94.75;93051.78;5047717;28;20302;-70
2022/08/04 03:20:09;;;;;;;10.13;9.53;;;;;;;15.94;94.63;93046.63;5049183;28;20190;-71
2022/08/04 03:23:10;;;;;;;23.93;22.23;;;;;;;16.04;94.27;93040.34;5048145;28;20237;-70
2022/08/04 03:25:38;;;;;;;8.80;8.40;;;;;;;15.97;94.85;93043.41;4995060;28;20192;-70
2022/08/04 03:28:49;;;;;;;10.63;9.70;;;;;;;15.92;94.92;93024.31;5048427;28;20267;-70
2022/08/04 03:32:05;;;;;;;9.80;9.20;;;;;;;16.04;94.56;93035.88;5025982;28;20202;-70
2022/08/04 03:34:49;;;;;;;11.17;10.47;;;;;;;15.96;95.27;93041.06;5035328;28;20222;-70
2022/08/04 03:37:35;;;;;;;11.10;10.40;;;;;;;16.07;94.96;93031.84;5048487;28;20230;-70
2022/08/04 03:40:21;;;;;;;9.93;9.40;;;;;;;16.15;93.59;93033.75;5048571;28;20189;-70
2022/08/04 03:43:34;;;;;;;11.00;10.30;;;;;;;16.03;94.32;93036.16;5048512;28;20248;-70
2022/08/04 03:46:19;;;;;;;10.73;10.13;;;;;;;16.13;94.30;93035.91;5041231;28;20225;-68
2022/08/04 03:48:59;;;;;;;10.33;9.77;;;;;;;16.14;93.81;93032.16;5048015;28;20228;-68
2022/08/04 03:55:01;;;;;;;10.93;10.23;;;;;;;16.29;93.92;93026.53;5048414;28;20204;-70
2022/08/04 03:58:05;;;;;;;11.47;9.90;;;;;;;16.48;92.98;93032.41;5022362;28;20237;-69
2022/08/04 04:00:54;;;;;;;10.07;9.07;;;;;;;16.54;93.26;93033.81;4959672;29;20280;-69
2022/08/04 04:03:38;;;;;;;10.97;10.37;;;;;;;16.62;92.39;93035.72;5044123;28;20226;-69
2022/08/04 04:06:22;;;;;;;10.13;9.53;;;;;;;16.75;91.97;93045.38;5049069;28;20216;-69
2022/08/04 04:09:13;;;;;;;10.77;9.97;;;;;;;17.03;90.80;93044.06;5046949;28;20225;-69
2022/08/04 04:12:02;;;;;;;10.97;10.37;;;;;;;17.16;90.32;93045.78;5048526;28;20923;-69
2022/08/04 04:14:45;;;;;;;11.27;10.43;;;;;;;17.39;90.10;93041.94;5048830;28;20210;-69
2022/08/04 04:17:40;;;;;;;11.77;10.67;;;;;;;17.62;88.54;93053.16;5048015;28;20229;-69
2022/08/04 04:20:32;;;;;;;10.27;9.67;;;;;;;17.77;87.79;93041.38;5022641;28;20195;-69
2022/08/04 04:23:56;;;;;;;10.40;9.60;;;;;;;18.13;84.72;93055.00;5047740;28;20218;-69
2022/08/04 04:26:37;;;;;;;10.50;9.90;;;;;;;18.30;82.99;93055.78;4997896;28;20200;-69
2022/08/04 04:29:34;;;;;;;9.83;9.23;;;;;;;18.19;85.47;93059.81;5001529;28;20217;-69
2022/08/04 04:32:36;;;;;;;10.83;10.23;;;;;;;18.18;86.93;93063.53;5019627;28;20263;-69
2022/08/04 04:35:02;;;;;;;13.40;12.20;;;;;;;18.25;86.28;93068.34;5051490;28;20798;-69
2022/08/04 04:38:06;;;;;;;11.30;10.60;;;;;;;18.37;85.33;93068.47;5050270;28;20226;-68
2022/08/04 04:40:54;;;;;;;11.07;10.37;;;;;;;18.45;84.36;93062.44;5051364;28;20186;-69
2022/08/04 04:43:45;;;;;;;10.83;10.13;;;;;;;18.67;83.85;93059.56;5051256;28;20237;-69
2022/08/04 04:46:35;;;;;;;12.87;12.20;;;;;;;18.79;83.46;93064.97;5052076;28;20186;-67
2022/08/04 04:49:24;;;;;;;13.23;12.33;;;;;;;18.84;83.79;93065.59;5051064;28;20248;-69
2022/08/04 04:52:08;;;;;;;13.17;11.37;;;;;;;18.91;83.44;93054.50;5051061;28;20259;-69
2022/08/04 04:54:51;;;;;;;10.47;9.33;;;;;;;19.01;83.68;93065.50;5050501;28;20264;-72
2022/08/04 04:57:19;;;;;;;10.20;9.37;;;;;;;19.25;83.13;93062.28;5051262;28;20269;-73
2022/08/04 04:59:54;;;;;;;10.67;10.07;;;;;;;19.44;82.12;93067.94;5049284;28;20250;-72
2022/08/04 05:02:39;;;;;;;10.07;9.20;;;;;;;19.76;81.35;93069.91;5050147;28;20234;-70
2022/08/04 05:05:16;;;;;;;9.50;9.00;;;;;;;19.86;79.91;93074.81;5051350;28;20205;-68
2022/08/04 05:08:19;;;;;;;11.70;10.70;;;;;;;19.31;81.64;93068.19;5050046;28;20246;-70
2022/08/04 05:11:03;;;;;;;11.90;10.90;;;;;;;19.76;80.47;93069.91;5050379;28;20188;-69
2022/08/04 05:13:41;;;;;;;11.55;10.65;;;;;;;20.01;80.42;93070.78;5049000;28;20236;-73
2022/08/04 05:16:23;;;;;;;9.80;9.10;;;;;;;20.18;79.85;93063.50;5048181;28;20287;-69
2022/08/04 05:19:11;;;;;;;12.77;10.40;;;;;;;20.51;77.99;93072.22;5049604;28;20244;-69
2022/08/04 05:21:59;;;;;;;11.70;10.70;;;;;;;20.41;78.75;93077.94;5049846;28;20188;-70
2022/08/04 05:24:27;;;;;;;13.30;11.87;;;;;;;20.74;77.05;93083.22;5041666;28;20222;-69
2022/08/04 05:26:55;;;;;;;13.93;12.67;;;;;;;20.50;78.53;93083.16;5046496;28;20181;-73
2022/08/04 05:29:52;;;;;;;17.00;15.50;;;;;;;20.66;76.49;93082.22;5051221;28;20188;-70
2022/08/04 05:32:22;;;;;;;15.13;13.77;;;;;;;20.64;76.82;93089.72;5049490;28;20233;-69
2022/08/04 05:35:10;;;;;;;15.38;13.95;;;;;;;20.95;76.59;93099.09;5049898;28;20953;-71
2022/08/04 05:37:39;;;;;;;14.85;13.48;;;;;;;20.50;78.14;93088.47;5048327;28;20230;-69
2022/08/04 05:40:06;;;;;;;13.88;12.77;;;;;;;20.73;78.15;93091.50;5047765;28;20190;-69
2022/08/04 05:42:36;;;;;;;14.05;12.57;;;;;;;20.66;79.28;93092.84;5048770;28;20225;-70
2022/08/04 05:45:03;;;;;;;14.68;13.23;;;;;;;20.85;77.45;93094.19;5050591;28;20208;-68
2022/08/04 05:47:30;;;;;;;14.73;13.18;;;;;;;21.16;76.04;93089.16;5049300;28;20236;-69
2022/08/04 05:49:56;;;;;;;14.93;13.52;;;;;;;22.67;70.18;93098.97;5049742;28;20678;-69
2022/08/04 05:52:24;;;;;;;14.60;13.30;;;;;;;23.32;66.76;93099.13;5048168;28;20233;-71
2022/08/04 05:54:51;;;;;;;14.18;12.88;;;;;;;24.80;62.12;93107.66;5048115;28;20270;-71
2022/08/04 05:57:17;;;;;;;13.60;12.50;;;;;;;28.80;50.39;93112.22;5047274;28;20243;-70
2022/08/04 05:59:47;;;;;;;12.77;11.65;;;;;;;30.95;43.36;93102.13;5049973;28;20256;-70
2022/08/04 06:02:16;;;;;;;11.75;10.55;;;;;;;33.63;37.40;93117.28;5049070;28;20236;-72
2022/08/04 06:04:48;;;;;;;11.75;10.55;;;;;;;35.41;33.38;93126.84;5050128;28;20238;-69
2022/08/04 06:07:14;;;;;;;10.98;10.10;;;;;;;35.20;32.69;93112.94;5049051;28;20241;-71
2022/08/04 06:09:40;;;;;;;11.18;10.38;;;;;;;34.69;33.46;93133.34;5047292;28;20190;-71
2022/08/04 06:12:19;;;;;;;11.30;10.27;;;;;;;34.83;33.51;93141.19;5048662;28;20197;-71
2022/08/04 06:14:49;;;;;;;11.70;10.57;;;;;;;30.58;41.43;93115.34;5048174;28;20174;-70
2022/08/04 06:17:24;;;;;;;11.77;10.82;;;;;;;32.03;39.04;93122.25;5048353;28;20314;-70
2022/08/04 06:19:52;;;;;;;11.68;10.77;;;;;;;30.50;41.38;93103.06;5047974;28;20200;-70
2022/08/04 06:22:20;;;;;;;12.50;11.50;;;;;;;29.13;45.58;93133.47;5046658;28;20256;-71
2022/08/04 06:24:48;;;;;;;13.00;11.80;;;;;;;26.38;53.27;93115.53;5049699;28;20227;-71
2022/08/04 06:27:16;;;;;;;12.98;11.90;;;;;;;25.86;55.47;93113.66;5049247;28;20248;-70
2022/08/04 06:29:43;;;;;;;13.57;12.52;;;;;;;23.32;62.96;93093.78;5049914;28;20186;-71
2022/08/04 06:32:12;;;;;;;14.02;12.63;;;;;;;23.46;64.56;93099.47;5047925;28;20197;-69
2022/08/04 06:34:40;;;;;;;12.90;11.60;;;;;;;23.83;64.00;93101.81;5048232;28;20194;-69
2022/08/04 06:37:07;;;;;;;13.73;12.45;;;;;;;23.13;66.15;93091.00;5046665;28;20186;-68
2022/08/04 06:39:33;;;;;;;13.88;12.52;;;;;;;24.27;63.55;93101.25;5045082;28;20194;-68
2022/08/04 06:41:59;;;;;;;14.38;11.98;;;;;;;25.26;60.74;93104.66;5047333;28;20193;-68
2022/08/04 06:44:27;;;;;;;15.27;13.75;;;;;;;25.34;60.35;93116.25;5048850;28;20214;-68
2022/08/04 06:46:53;;;;;;;14.45;13.05;;;;;;;25.27;59.54;93118.81;5048489;28;20187;-72
2022/08/04 06:49:19;;;;;;;13.85;12.55;;;;;;;24.54;61.19;93113.63;5048447;28;20192;-69
2022/08/04 06:51:45;;;;;;;14.32;13.07;;;;;;;23.40;65.12;93116.84;5048446;28;20200;-68
2022/08/04 06:54:11;;;;;;;14.60;13.30;;;;;;;24.27;62.95;93111.94;5047172;28;20229;-70
2022/08/04 06:56:38;;;;;;;14.98;13.65;;;;;;;24.29;62.73;93124.94;5044008;28;20218;-71
2022/08/04 06:59:04;;;;;;;14.77;13.43;;;;;;;24.01;63.50;93116.31;5048330;28;20240;-68
2022/08/04 07:01:31;;;;;;;14.95;13.65;;;;;;;24.12;62.97;93125.34;5047766;28;20235;-69
2022/08/04 07:03:57;;;;;;;13.18;11.90;;;;;;;23.87;63.88;93129.31;5047682;28;20250;-68
2022/08/04 07:06:24;;;;;;;15.13;13.75;;;;;;;23.91;63.15;93124.84;5048618;28;20200;-67
2022/08/04 07:08:50;;;;;;;14.65;13.15;;;;;;;23.57;64.20;93107.69;5048279;28;20235;-68
2022/08/04 07:11:18;;;;;;;15.32;13.73;;;;;;;23.76;63.30;93123.75;5046824;28;20279;-69
2022/08/04 07:13:45;;;;;;;15.27;13.98;;;;;;;23.30;63.01;93108.59;5047586;28;20224;-69
2022/08/04 07:16:13;;;;;;;15.15;13.93;;;;;;;23.40;63.18;93110.72;5045646;28;20247;-69
2022/08/04 07:18:39;;;;;;;15.15;13.60;;;;;;;23.13;64.33;93116.91;5047152;28;20227;-69
2022/08/04 07:21:06;;;;;;;14.63;13.38;;;;;;;23.72;62.94;93117.59;5047361;28;20206;-69
2022/08/04 07:23:31;;;;;;;15.20;13.90;;;;;;;24.06;61.65;93113.41;5047237;28;20268;-69
2022/08/04 07:25:57;;;;;;;15.82;14.35;;;;;;;23.71;63.08;93111.47;5046690;28;20227;-68
2022/08/04 07:28:28;;;;;;;18.70;14.20;;;;;;;23.74;64.06;93108.09;5047221;28;20241;-69
2022/08/04 07:30:55;;;;;;;15.57;14.15;;;;;;;24.08;63.65;93111.91;5050094;28;20209;-70
2022/08/04 07:33:22;;;;;;;15.60;14.20;;;;;;;24.19;63.09;93101.47;5047330;28;20228;-69
2022/08/04 07:35:53;;;;;;;15.73;14.15;;;;;;;23.86;64.65;93111.78;5047026;28;20992;-68
2022/08/04 07:38:19;;;;;;;16.77;15.13;;;;;;;24.46;61.30;93097.81;5047251;28;20350;-68
2022/08/04 07:40:45;;;;;;;16.73;14.63;;;;;;;24.60;61.14;93114.91;5047711;28;20201;-67
2022/08/04 07:43:13;;;;;;;15.85;14.23;;;;;;;24.58;61.95;93113.69;5047363;28;20345;-68
2022/08/04 07:45:38;;;;;;;15.90;14.35;;;;;;;24.82;61.33;93116.09;5046960;28;20193;-69
2022/08/04 07:48:05;;;;;;;17.33;13.82;;;;;;;24.10;64.83;93111.56;5045171;28;20235;-69
2022/08/04 07:50:32;;;;;;;14.68;13.27;;;;;;;25.03;59.43;93111.13;5045808;28;20200;-69
2022/08/04 07:52:58;;;;;;;14.07;12.90;;;;;;;24.90;60.79;93107.09;5042439;28;20254;-69
2022/08/04 07:55:25;;;;;;;15.05;13.27;;;;;;;25.46;59.49;93124.13;5047894;28;20216;-70
2022/08/04 07:57:50;;;;;;;15.88;14.32;;;;;;;25.44;58.47;93126.38;5046819;28;20240;-69
2022/08/04 08:00:16;;;;;;;15.23;13.93;;;;;;;24.21;63.38;93112.56;5047877;28;20201;-70
2022/08/04 08:02:44;;;;;;;15.32;14.02;;;;;;;24.57;62.30;93120.94;5047544;28;20225;-68
2022/08/04 08:05:13;;;;;;;15.05;13.73;;;;;;;25.38;58.05;93119.00;5051949;28;20193;-69
2022/08/04 08:07:38;;;;;;;14.40;12.98;;;;;;;25.34;58.14;93121.59;5050313;28;20224;-69
2022/08/04 08:10:10;;;;;;;15.07;13.68;;;;;;;25.13;58.71;93127.34;5050873;28;20204;-70
2022/08/04 08:12:36;;;;;;;15.68;14.18;;;;;;;24.15;62.95;93120.06;5049533;28;20232;-70
2022/08/04 08:15:02;;;;;;;16.10;14.70;;;;;;;24.08;62.80;93111.16;5051641;28;20204;-68
2022/08/04 08:17:27;;;;;;;16.33;14.43;;;;;;;24.20;63.53;93111.81;5050352;28;20854;-68
2022/08/04 08:19:53;;;;;;;15.63;14.05;;;;;;;24.46;63.10;93109.28;5049135;28;20779;-68
2022/08/04 08:22:18;;;;;;;15.63;13.95;;;;;;;24.59;63.14;93116.00;5049467;28;20221;-67
2022/08/04 08:24:44;;;;;;;17.48;14.35;;;;;;;24.60;62.26;93116.78;5047581;28;20301;-68
2022/08/04 08:27:09;;;;;;;14.23;12.75;;;;;;;25.72;58.37;93121.47;5050220;28;20198;-70
2022/08/04 08:29:36;;;;;;;13.60;12.45;;;;;;;25.67;59.18;93121.75;5051219;28;20281;-68
2022/08/04 08:32:03;;;;;;;13.25;12.07;;;;;;;25.62;58.15;93127.41;5046826;28;20190;-69
2022/08/04 08:34:30;;;;;;;13.75;12.55;;;;;;;25.48;57.04;93121.84;5049614;28;20193;-69
2022/08/04 08:37:19;;;;;;;14.23;11.32;;;;;;;25.76;55.18;93130.31;5049891;28;20259;-69
2022/08/04 08:39:56;;;;;;;11.57;10.68;;;;;;;25.70;58.90;93122.97;5051246;28;20199;-68
2022/08/04 08:42:50;;;;;;;12.35;11.38;;;;;;;24.73;60.30;93088.84;5050380;28;20267;-69
2022/08/04 08:45:54;;;;;;;11.88;10.85;;;;;;;25.91;56.59;93123.28;5049107;28;20206;-69
2022/08/04 08:48:30;;;;;;;10.50;9.32;;;;;;;27.07;52.05;93122.09;5006998;28;20254;-69
2022/08/04 08:51:27;;;;;;;17.00;15.48;;;;;;;27.34;51.27;93110.09;5007646;28;20202;-68
2022/08/04 08:54:26;;;;;;;11.93;10.90;;;;;;;27.56;50.80;93119.88;5038465;28;20222;-69
2022/08/04 08:57:43;;;;;;;11.90;10.70;;;;;;;27.39;47.76;93128.53;5048771;28;20190;-72
2022/08/04 09:00:15;;;;;;;12.80;11.40;;;;;;;27.15;48.79;93127.16;4970316;28;20196;-69
2022/08/04 09:02:47;;;;;;;12.35;11.25;;;;;;;26.81;52.17;93130.22;4968807;28;20270;-69
2022/08/04 09:05:40;;;;;;;12.05;10.27;;;;;;;26.80;49.02;93128.69;5015281;28;20209;-69
2022/08/04 09:08:26;;;;;;;10.80;9.90;;;;;;;27.13;47.32;93131.34;5049698;28;20257;-69
2022/08/04 09:11:00;;;;;;;12.35;11.23;;;;;;;26.80;50.47;93120.66;5049782;28;20182;-69
2022/08/04 09:13:32;;;;;;;11.82;10.77;;;;;;;26.80;50.80;93123.31;5048537;28;20229;-69
2022/08/04 09:16:13;;;;;;;12.38;11.07;;;;;;;27.06;48.89;93117.84;5047626;28;20217;-69
2022/08/04 09:18:58;;;;;;;12.02;11.13;;;;;;;26.86;48.74;93117.28;5048689;28;20234;-69
2022/08/04 09:21:32;;;;;;;11.40;10.40;;;;;;;26.19;48.38;93099.59;5049187;28;20225;-69
2022/08/04 09:24:12;;;;;;;10.35;9.65;;;;;;;27.51;46.91;93117.53;5045890;28;20229;-68
2022/08/04 09:26:47;;;;;;;10.00;9.40;;;;;;;27.64;46.24;93111.50;5049118;28;20222;-69
2022/08/04 09:29:40;;;;;;;10.10;9.40;;;;;;;27.58;46.90;93107.63;5049504;28;20233;-67
2022/08/04 09:32:37;;;;;;;9.90;9.10;;;;;;;27.02;47.32;93107.09;5047060;28;20250;-70
2022/08/04 09:35:23;;;;;;;9.25;8.48;;;;;;;26.21;44.87;93103.44;5049460;28;20190;-70
2022/08/04 09:38:26;;;;;;;9.23;8.63;;;;;;;26.52;46.46;93111.09;5047196;28;20230;-70
2022/08/04 09:41:10;;;;;;;9.60;8.70;;;;;;;26.38;41.28;93110.94;5050102;28;20190;-69
2022/08/04 09:43:36;;;;;;;7.93;7.43;;;;;;;26.27;41.67;93104.66;5047174;28;20261;-71
2022/08/04 09:46:12;;;;;;;9.00;8.50;;;;;;;26.70;41.87;93106.00;5048155;28;20177;-70
2022/08/04 09:48:49;;;;;;;9.05;8.45;;;;;;;27.06;39.68;93110.59;5045249;28;20226;-69
2022/08/04 09:51:40;;;;;;;8.15;7.65;;;;;;;27.13;39.26;93107.22;5045934;28;20197;-69
2022/08/04 09:54:11;;;;;;;9.20;8.55;;;;;;;27.05;42.96;93105.59;5049011;28;21047;-69
2022/08/04 09:57:14;;;;;;;9.65;8.40;;;;;;;27.27;40.97;93107.38;5049917;28;20199;-70
2022/08/04 10:00:01;;;;;;;7.97;7.50;;;;;;;27.14;37.67;93108.75;5047744;28;20222;-68
2022/08/04 10:02:31;;;;;;;8.02;7.63;;;;;;;26.99;35.76;93107.06;5049916;28;20306;-69
2022/08/04 10:05:01;;;;;;;8.65;7.95;;;;;;;27.60;33.68;93096.53;5045273;28;20202;-70
2022/08/04 10:07:26;;;;;;;8.15;7.55;;;;;;;27.15;38.00;93100.34;5046978;28;20233;-70
2022/08/04 10:10:09;;;;;;;9.48;8.60;;;;;;;27.60;40.46;93101.88;5046094;28;20203;-70
2022/08/04 10:12:48;;;;;;;7.88;7.22;;;;;;;27.87;34.76;93101.38;5047743;28;20238;-70
2022/08/04 10:15:30;;;;;;;8.20;7.70;;;;;;;27.22;37.49;93095.03;5049109;28;20220;-70
2022/08/04 10:18:01;;;;;;;9.10;8.50;;;;;;;27.88;35.31;93096.75;5046626;28;20257;-70
2022/08/04 10:20:49;;;;;;;8.30;7.70;;;;;;;27.59;36.48;93103.03;5049212;28;20194;-70
2022/08/04 10:23:18;;;;;;;7.93;7.50;;;;;;;27.86;35.07;93096.34;5048537;28;20222;-70
2022/08/04 10:26:01;;;;;;;8.30;7.80;;;;;;;28.20;35.71;93097.72;5048074;28;20250;-71
2022/08/04 10:28:29;;;;;;;8.15;7.65;;;;;;;28.43;31.98;93097.44;5043091;28;20229;-71
2022/08/04 10:30:59;;;;;;;8.07;7.47;;;;;;;28.83;34.23;93095.31;5047615;28;20202;-72
2022/08/04 10:33:31;;;;;;;7.65;7.15;;;;;;;28.88;33.71;93097.66;5047885;28;20234;-70
2022/08/04 10:36:05;;;;;;;9.55;8.75;;;;;;;28.71;35.93;93098.38;5045082;28;20187;-71
2022/08/04 10:38:36;;;;;;;8.40;7.70;;;;;;;27.84;34.52;93091.34;5048724;28;20237;-71
2022/08/04 10:41:39;;;;;;;9.95;9.05;;;;;;;28.33;36.40;93092.81;5048740;28;20697;-71
2022/08/04 10:44:22;;;;;;;9.48;8.77;;;;;;;28.15;38.15;93087.34;5046148;28;20229;-71
2022/08/04 10:46:53;;;;;;;8.95;8.43;;;;;;;27.94;38.37;93066.50;5047988;28;20177;-71
2022/08/04 10:49:29;;;;;;;8.23;7.80;;;;;;;28.18;33.88;93081.22;5046670;28;20275;-71
2022/08/04 10:52:08;;;;;;;9.13;8.52;;;;;;;28.24;34.78;93080.47;5046764;28;20241;-71
2022/08/04 10:54:56;;;;;;;8.60;8.10;;;;;;;27.76;36.79;93087.06;5048312;28;20246;-70
2022/08/04 10:57:28;;;;;;;8.40;7.90;;;;;;;27.73;36.13;93079.78;5047484;28;20245;-70
2022/08/04 11:00:06;;;;;;;9.68;8.88;;;;;;;28.12;37.11;93071.97;5047714;28;20209;-69
2022/08/04 11:02:43;;;;;;;8.85;8.35;;;;;;;28.09;35.22;93068.09;5047995;28;20239;-70
2022/08/04 11:05:28;;;;;;;8.60;8.00;;;;;;;27.98;35.37;93071.91;5047927;28;20272;-71
2022/08/04 11:08:00;;;;;;;9.60;8.90;;;;;;;27.97;35.41;93060.38;5046516;28;20230;-71
2022/08/04 11:10:31;;;;;;;9.25;8.48;;;;;;;27.70;37.04;93056.38;5045831;28;20174;-72
2022/08/04 11:13:03;;;;;;;8.07;7.60;;;;;;;27.82;37.11;93068.69;5044937;28;20229;-72
2022/08/04 11:15:51;;;;;;;8.02;7.43;;;;;;;27.70;33.48;93055.59;5047986;28;20190;-73
2022/08/04 11:18:40;;;;;;;7.65;7.20;;;;;;;27.63;34.51;93068.94;5047104;28;20250;-72
2022/08/04 11:21:15;;;;;;;7.93;7.53;;;;;;;27.44;34.52;93061.91;5026880;28;20236;-73
2022/08/04 11:23:46;;;;;;;8.77;7.97;;;;;;;27.80;34.80;93055.66;5042852;28;20229;-72
2022/08/04 11:26:18;;;;;;;7.88;7.47;;;;;;;27.81;34.15;93059.09;5047081;28;20199;-71
2022/08/04 11:29:25;;;;;;;8.40;7.90;;;;;;;28.52;35.50;93060.25;5046301;28;20236;-72
2022/08/04 11:31:52;;;;;;;7.93;7.43;;;;;;;29.04;32.47;93063.13;5040042;28;20212;-72
2022/08/04 11:34:24;;;;;;;8.85;8.30;;;;;;;28.80;33.12;93063.03;5046566;28;21321;-71
2022/08/04 11:37:03;;;;;;;8.00;7.40;;;;;;;28.60;31.68;93054.56;5046753;28;20199;-71
2022/08/04 11:39:32;;;;;;;7.70;7.30;;;;;;;28.96;32.84;93061.56;5045986;28;20213;-71
2022/08/04 11:42:13;;;;;;;8.68;8.07;;;;;;;29.39;32.14;93057.00;5073645;28;20198;-70
2022/08/04 11:44:50;;;;;;;8.68;7.93;;;;;;;29.54;31.57;93059.31;5046264;28;20197;-70
2022/08/04 11:47:33;;;;;;;7.90;7.30;;;;;;;29.52;32.80;93042.78;5046387;28;20303;-71
2022/08/04 11:50:07;;;;;;;8.45;7.85;;;;;;;29.25;33.39;93041.63;5046399;28;20215;-72
2022/08/04 11:52:34;;;;;;;8.55;7.95;;;;;;;29.18;33.85;93047.03;5046382;28;20315;-72
2022/08/04 11:55:04;;;;;;;8.18;7.68;;;;;;;28.99;32.51;93030.44;5047610;28;20230;-72
2022/08/04 11:57:30;;;;;;;8.27;7.78;;;;;;;29.10;32.61;93044.69;5047024;28;20864;-72
2022/08/04 11:59:57;;;;;;;8.75;8.07;;;;;;;28.14;33.69;93034.78;5047518;28;20192;-71
2022/08/04 12:02:57;;;;;;;7.93;7.35;;;;;;;28.47;34.06;93045.28;5047404;28;20280;-72
2022/08/04 12:05:35;;;;;;;8.68;7.97;;;;;;;28.64;32.41;93033.81;5045421;28;20221;-72
2022/08/04 12:08:20;;;;;;;8.25;7.65;;;;;;;28.65;31.65;93040.75;5042961;28;20230;-72
2022/08/04 12:10:52;;;;;;;8.65;8.15;;;;;;;28.17;35.45;93037.47;5046551;28;20188;-72
2022/08/04 12:13:26;;;;;;;7.57;7.22;;;;;;;28.40;34.28;93039.88;5047409;28;20235;-71